R.d. Riley — CZ4857 — position and weather

sailwx.info

Track history (hours):
 
Tides and Currents Weather Stations Pressure Air Temp Water Temp Dewpoint Dewpoint Depression Visibility Wind Speed Wind Dir Waves Ship Positions

R.d. Riley

Last reported at 2018-Jun-25 05:30 UTC. Time now 2018-Jun-25 05:38 UTC.
Position N 50°43' W 127°29'.

Length 19 m; draft 2.5 m.

Type: Pilot. MMSI: 316007942.

Date/timePositionNaut miles runAvg speedWind from/ knotsBaromVisibWave heightAir tempDewpointWater temp
2018-Jun-25 05:30N 50°43' W 127°29'0 0.0
2018-Jun-25 05:00N 50°43' W 127°29'0 0.0
2018-Jun-25 04:30N 50°43' W 127°29'0 0.0
2018-Jun-25 04:00N 50°43' W 127°29'0 0.0
2018-Jun-25 03:30N 50°43' W 127°29'0 0.0
2018-Jun-25 03:00N 50°43' W 127°29'0 0.0
2018-Jun-25 02:30N 50°43' W 127°29'0 0.0
2018-Jun-25 02:00N 50°43' W 127°29'0 0.0
2018-Jun-25 01:30N 50°43' W 127°29'0 0.0
2018-Jun-25 01:00N 50°43' W 127°29'0 0.0
2018-Jun-25 00:29N 50°43' W 127°29'0 0.0
2018-Jun-25 00:00N 50°43' W 127°29'0 0.0
2018-Jun-24 23:30N 50°43' W 127°29'0 0.0
2018-Jun-24 23:00N 50°43' W 127°29'0 0.0
2018-Jun-24 22:30N 50°43' W 127°29'2 3.2
2018-Jun-24 22:00N 50°44' W 127°29'918.6
2018-Jun-24 21:30N 50°52' W 127°36'1019.9
2018-Jun-24 21:00N 50°58' W 127°49'5 9.7
2018-Jun-24 20:30N 50°55' W 127°43'918.4
2018-Jun-24 20:00N 50°49' W 127°32'713.4
2018-Jun-24 19:30N 50°43' W 127°29'0 0.0
2018-Jun-24 19:00N 50°43' W 127°29'0 0.0
2018-Jun-24 18:30N 50°43' W 127°29'0 0.0
2018-Jun-24 18:00N 50°43' W 127°29'1 2.0
2018-Jun-24 17:30N 50°44' W 127°29'1019.1
2018-Jun-24 17:00N 50°52' W 127°36'916.7
2018-Jun-24 16:29N 50°58' W 127°46'816.5
2018-Jun-24 16:00N 50°52' W 127°37'713.3
2018-Jun-24 15:30N 50°47' W 127°30'5 8.8
2018-Jun-24 14:58N 50°43' W 127°29'0 0.0
2018-Jun-24 14:30N 50°43' W 127°29'0 0.0
2018-Jun-24 14:00N 50°43' W 127°29'0 0.0
2018-Jun-24 13:29N 50°43' W 127°29'0 0.0
2018-Jun-24 13:00N 50°43' W 127°29'0 0.0
2018-Jun-24 12:30N 50°43' W 127°29'0 0.0
2018-Jun-24 12:00N 50°43' W 127°29'0 0.0
2018-Jun-24 11:30N 50°43' W 127°29'0 0.0
2018-Jun-24 11:00N 50°43' W 127°29'0 0.0
2018-Jun-24 10:30N 50°43' W 127°29'0 0.0
2018-Jun-24 09:56N 50°43' W 127°29'0 0.0
2018-Jun-24 09:30N 50°43' W 127°29'0 0.0
2018-Jun-24 09:00N 50°43' W 127°29'0 0.0
2018-Jun-24 08:30N 50°43' W 127°29'0 0.0
2018-Jun-24 08:00N 50°43' W 127°29'0 0.0
2018-Jun-24 07:30N 50°43' W 127°29'0 0.0
2018-Jun-24 06:58N 50°43' W 127°29'0 0.0
2018-Jun-24 06:30N 50°43' W 127°29'0 0.0
2018-Jun-24 05:51N 50°43' W 127°29'0 0.0
2018-Jun-24 05:30N 50°43' W 127°29'0 0.0
2018-Jun-24 05:00N 50°43' W 127°29'0 0.0
2018-Jun-24 04:16N 50°43' W 127°29'0 0.0
2018-Jun-24 03:59N 50°43' W 127°29'0 0.0
2018-Jun-24 03:30N 50°43' W 127°29'0 0.0
2018-Jun-24 03:00N 50°43' W 127°29'0 0.0
2018-Jun-24 02:30N 50°43' W 127°29'0 0.0
2018-Jun-24 01:58N 50°43' W 127°29'0 0.0
2018-Jun-24 01:30N 50°43' W 127°29'0 0.0
2018-Jun-24 01:00N 50°43' W 127°29'0 0.0
2018-Jun-24 00:30N 50°43' W 127°29'0 0.0
2018-Jun-24 00:00N 50°43' W 127°29'3 6.4
2018-Jun-23 23:30N 50°46' W 127°29'919.4
2018-Jun-23 23:00N 50°53' W 127°38'4 8.8
2018-Jun-23 22:30N 50°56' W 127°44'3 6.1
2018-Jun-23 22:00N 50°58' W 127°48'0 0.3
2018-Jun-23 21:30N 50°58' W 127°48'2 4.8
2018-Jun-23 21:00N 50°56' W 127°44'1020.1
2018-Jun-23 20:30N 50°50' W 127°33'714.6
2018-Jun-23 20:00N 50°43' W 127°29'0 0.0
2018-Jun-23 19:30N 50°43' W 127°29'0 0.0
2018-Jun-23 19:00N 50°43' W 127°29'0 0.0
2018-Jun-23 18:30N 50°43' W 127°29'0 0.0
2018-Jun-23 18:00N 50°43' W 127°29'0 0.0
2018-Jun-23 17:28N 50°43' W 127°29'612.2
2018-Jun-23 17:00N 50°48' W 127°31'1020.2
2018-Jun-23 16:30N 50°55' W 127°42'1 2.2
2018-Jun-23 15:59N 50°56' W 127°43'612.5
2018-Jun-23 15:30N 50°52' W 127°36'510.5
2018-Jun-23 15:00N 50°48' W 127°31'611.6
2018-Jun-23 14:30N 50°43' W 127°29'0 0.1
2018-Jun-23 14:00N 50°43' W 127°29'0 0.0
2018-Jun-23 13:30N 50°43' W 127°29'0 0.0
2018-Jun-23 13:00N 50°43' W 127°29'0 0.0
2018-Jun-23 12:30N 50°43' W 127°29'0 0.0
2018-Jun-23 12:00N 50°43' W 127°29'0 0.0
2018-Jun-23 11:30N 50°43' W 127°29'0 0.0
2018-Jun-23 11:00N 50°43' W 127°29'0 0.0
2018-Jun-23 10:30N 50°43' W 127°29'0 0.0
2018-Jun-23 10:00N 50°43' W 127°29'0 0.0
2018-Jun-23 09:30N 50°43' W 127°29'0 0.0
2018-Jun-23 09:00N 50°43' W 127°29'0 0.0
2018-Jun-23 08:30N 50°43' W 127°29'0 0.0
2018-Jun-23 07:59N 50°43' W 127°29'0 0.0
2018-Jun-23 07:30N 50°43' W 127°29'0 0.0
2018-Jun-23 06:58N 50°43' W 127°29'0 0.0
2018-Jun-23 06:30N 50°43' W 127°29'0 0.0
2018-Jun-23 05:57N 50°43' W 127°29'0 0.0
2018-Jun-23 05:30N 50°43' W 127°29'0 0.0
2018-Jun-23 05:00N 50°43' W 127°29'0 0.0
2018-Jun-23 04:30N 50°43' W 127°29'0 0.0
2018-Jun-23 04:00N 50°43' W 127°29'0 0.0
2018-Jun-23 03:30N 50°43' W 127°29'0 0.0
2018-Jun-23 03:00N 50°43' W 127°29'0 0.0
2018-Jun-23 02:30N 50°43' W 127°29'0 0.0
2018-Jun-23 02:00N 50°43' W 127°29'0 0.0
2018-Jun-23 01:30N 50°43' W 127°29'0 0.0
2018-Jun-23 01:00N 50°43' W 127°29'0 0.0
2018-Jun-23 00:30N 50°43' W 127°29'0 0.0
2018-Jun-23 00:00N 50°43' W 127°29'0 0.0
2018-Jun-22 23:30N 50°43' W 127°29'0 0.0
2018-Jun-22 23:00N 50°43' W 127°29'0 0.0
2018-Jun-22 22:30N 50°43' W 127°29'0 0.0
2018-Jun-22 22:00N 50°43' W 127°29'0 0.0
2018-Jun-22 21:30N 50°43' W 127°29'0 0.0
2018-Jun-22 21:00N 50°43' W 127°29'0 0.0
2018-Jun-22 20:30N 50°43' W 127°29'2 4.6
2018-Jun-22 20:00N 50°45' W 127°29'919.1
2018-Jun-22 19:31N 50°52' W 127°37'918.5
2018-Jun-22 19:00N 50°59' W 127°48'3 6.0
2018-Jun-22 18:31N 50°57' W 127°45'1019.7
2018-Jun-22 18:01N 50°50' W 127°33'815.8
2018-Jun-22 17:30N 50°43' W 127°29'0 0.0
2018-Jun-22 17:00N 50°43' W 127°29'0 0.0
2018-Jun-22 16:30N 50°43' W 127°29'0 0.0
2018-Jun-22 16:00N 50°43' W 127°29'916.2
2018-Jun-22 15:27N 50°51' W 127°34'920.3
2018-Jun-22 15:00N 50°58' W 127°44'4 8.8
2018-Jun-22 14:30N 50°54' W 127°39'714.0
2018-Jun-22 14:00N 50°49' W 127°32'713.2
2018-Jun-22 13:30N 50°43' W 127°29'0 0.2
2018-Jun-22 13:00N 50°43' W 127°29'0 0.0
2018-Jun-22 12:30N 50°43' W 127°29'0 0.0
2018-Jun-22 12:00N 50°43' W 127°29'0 0.0
2018-Jun-22 11:30N 50°43' W 127°29'0 0.0
2018-Jun-22 11:00N 50°43' W 127°29'0 0.0
2018-Jun-22 10:30N 50°43' W 127°29'0 0.0
2018-Jun-22 10:00N 50°43' W 127°29'0 0.0
2018-Jun-22 09:29N 50°43' W 127°29'0 0.0
2018-Jun-22 08:59N 50°43' W 127°29'713.9
2018-Jun-22 08:30N 50°48' W 127°34'918.2
2018-Jun-22 08:00N 50°56' W 127°42'1 1.9
2018-Jun-22 07:30N 50°56' W 127°41'714.6
2018-Jun-22 07:00N 50°49' W 127°35'815.0
2018-Jun-22 06:30N 50°43' W 127°29'0 0.0
2018-Jun-22 05:59N 50°43' W 127°29'0 0.0
2018-Jun-22 05:30N 50°43' W 127°29'0 0.0
2018-Jun-22 05:00N 50°43' W 127°29'0 0.0
2018-Jun-22 04:30N 50°43' W 127°29'0 0.0
2018-Jun-22 04:00N 50°43' W 127°29'0 0.0
2018-Jun-22 03:30N 50°43' W 127°29'0 0.0
2018-Jun-22 03:00N 50°43' W 127°29'0 0.0
2018-Jun-22 02:30N 50°43' W 127°29'0 0.0
2018-Jun-22 02:00N 50°43' W 127°29'0 0.0
2018-Jun-22 01:29N 50°43' W 127°29'0 0.0
2018-Jun-22 00:59N 50°43' W 127°29'0 0.0
2018-Jun-22 00:30N 50°43' W 127°29'0 0.0
2018-Jun-22 00:00N 50°43' W 127°29'0 0.0
2018-Jun-21 23:30N 50°43' W 127°29'0 0.0
2018-Jun-21 22:57N 50°43' W 127°29'0 0.0
2018-Jun-21 22:30N 50°43' W 127°29'0 0.0
2018-Jun-21 21:59N 50°43' W 127°29'0 0.0
2018-Jun-21 21:30N 50°43' W 127°29'0 0.0
2018-Jun-21 20:57N 50°43' W 127°29'0 0.0
2018-Jun-21 20:30N 50°43' W 127°29'0 0.0
2018-Jun-21 20:00N 50°43' W 127°29'0 0.0
2018-Jun-21 19:30N 50°43' W 127°29'0 0.0
2018-Jun-21 18:59N 50°43' W 127°29'0 0.0
2018-Jun-21 18:30N 50°43' W 127°29'0 0.0
2018-Jun-21 18:00N 50°43' W 127°29'0 0.0
2018-Jun-21 17:30N 50°43' W 127°29'0 0.0
2018-Jun-21 16:58N 50°43' W 127°29'0 0.0
2018-Jun-21 16:30N 50°43' W 127°29'8 5.4
2018-Jun-21 15:00N 50°50' W 127°33'1020.0
2018-Jun-21 14:30N 50°58' W 127°45'713.3
2018-Jun-21 13:59N 50°53' W 127°37'612.2
2018-Jun-21 13:31N 50°48' W 127°31'611.4
2018-Jun-21 13:00N 50°43' W 127°29'0 0.0
2018-Jun-21 12:30N 50°43' W 127°29'0 0.0
2018-Jun-21 12:01N 50°43' W 127°29'0 0.0
2018-Jun-21 11:31N 50°43' W 127°29'0 0.0
2018-Jun-21 11:00N 50°43' W 127°29'0 0.0
2018-Jun-21 10:31N 50°43' W 127°29'0 0.0
2018-Jun-21 09:59N 50°43' W 127°29'0 0.0
2018-Jun-21 09:31N 50°43' W 127°29'0 0.0
2018-Jun-21 09:01N 50°43' W 127°29'0 0.0
2018-Jun-21 08:30N 50°43' W 127°29'0 0.0
2018-Jun-21 08:01N 50°43' W 127°29'0 0.0
2018-Jun-21 07:31N 50°43' W 127°29'0 0.0
2018-Jun-21 07:00N 50°43' W 127°29'0 0.0
2018-Jun-21 06:30N 50°43' W 127°29'0 0.0
2018-Jun-21 06:01N 50°43' W 127°29'0 0.0
2018-Jun-21 05:31N 50°43' W 127°29'0 0.0
2018-Jun-21 05:00N 50°43' W 127°29'0 0.0
2018-Jun-21 04:30N 50°43' W 127°29'0 0.0
2018-Jun-21 03:57N 50°43' W 127°29'0 0.0
2018-Jun-21 03:30N 50°43' W 127°29'0 0.0
2018-Jun-21 03:00N 50°43' W 127°29'0 0.0
2018-Jun-21 02:30N 50°43' W 127°29'0 0.0
2018-Jun-21 02:01N 50°43' W 127°29'0 0.0
2018-Jun-21 01:30N 50°43' W 127°29'0 0.0
2018-Jun-21 01:00N 50°43' W 127°29'3 6.1
2018-Jun-21 00:30N 50°46' W 127°29'1020.4
2018-Jun-21 00:00N 50°54' W 127°39'714.0
2018-Jun-20 23:30N 50°58' W 127°47'1019.1
2018-Jun-20 23:00N 50°52' W 127°36'917.9
2018-Jun-20 22:30N 50°44' W 127°29'1 2.9
2018-Jun-20 22:00N 50°43' W 127°29'0 0.0
2018-Jun-20 21:30N 50°43' W 127°29'0 0.0
2018-Jun-20 21:00N 50°43' W 127°29'1 2.0
2018-Jun-20 20:30N 50°44' W 127°29'1019.4
2018-Jun-20 20:00N 50°52' W 127°36'816.1
2018-Jun-20 19:30N 50°58' W 127°45'918.8
2018-Jun-20 19:01N 50°51' W 127°35'814.7
2018-Jun-20 18:28N 50°44' W 127°29'1 3.2
2018-Jun-20 18:00N 50°43' W 127°29'0 0.0
2018-Jun-20 17:30N 50°43' W 127°29'0 0.0
2018-Jun-20 17:00N 50°43' W 127°29'0 0.0
2018-Jun-20 16:29N 50°43' W 127°29'0 0.0
2018-Jun-20 15:59N 50°43' W 127°29'0 0.0
2018-Jun-20 15:30N 50°43' W 127°29'0 0.0
2018-Jun-20 15:00N 50°43' W 127°29'0 0.0
2018-Jun-20 14:30N 50°43' W 127°29'0 0.0
2018-Jun-20 14:00N 50°43' W 127°29'0 0.0
2018-Jun-20 13:30N 50°43' W 127°29'0 0.0
2018-Jun-20 13:00N 50°43' W 127°29'0 0.0
2018-Jun-20 12:30N 50°43' W 127°29'0 0.0
2018-Jun-20 12:00N 50°43' W 127°29'0 0.0
2018-Jun-20 11:30N 50°43' W 127°29'0 0.0
2018-Jun-20 10:59N 50°43' W 127°29'0 0.0
2018-Jun-20 10:30N 50°43' W 127°29'0 0.0
2018-Jun-20 10:00N 50°43' W 127°29'0 0.0
2018-Jun-20 09:30N 50°43' W 127°29'0 0.0
2018-Jun-20 09:00N 50°43' W 127°29'0 0.0
2018-Jun-20 08:30N 50°43' W 127°29'0 0.0
2018-Jun-20 06:33N 50°43' W 127°29'0 0.0
2018-Jun-20 06:18N 50°43' W 127°29'0 0.0
2018-Jun-20 06:00N 50°43' W 127°29'0 0.0
2018-Jun-20 05:28N 50°43' W 127°29'0 0.0
2018-Jun-20 04:58N 50°43' W 127°29'0 0.0
2018-Jun-20 04:29N 50°43' W 127°29'0 0.0
2018-Jun-20 03:59N 50°43' W 127°29'0 0.0
2018-Jun-20 03:29N 50°43' W 127°29'0 0.0
2018-Jun-20 03:00N 50°43' W 127°29'0 0.0
2018-Jun-20 02:28N 50°43' W 127°29'0 0.0
2018-Jun-20 02:00N 50°43' W 127°29'0 0.0
2018-Jun-20 01:21N 50°43' W 127°29'0 0.0
2018-Jun-20 00:54N 50°43' W 127°29'0 0.0
2018-Jun-20 00:27N 50°43' W 127°29'0 0.0
2018-Jun-19 23:58N 50°43' W 127°29'0 0.0
2018-Jun-19 23:30N 50°43' W 127°29'2 4.7
2018-Jun-19 23:00N 50°45' W 127°29'1019.9
2018-Jun-19 22:31N 50°53' W 127°38'918.0
2018-Jun-19 22:00N 50°59' W 127°48'917.7
2018-Jun-19 21:30N 50°53' W 127°38'1019.8
2018-Jun-19 21:00N 50°45' W 127°29'2 2.4
2018-Jun-19 20:05N 50°43' W 127°29'0 0.0
2018-Jun-19 19:49N 50°43' W 127°29'0 0.0
2018-Jun-19 19:21N 50°43' W 127°29'0 0.0
2018-Jun-19 18:52N 50°43' W 127°29'0 0.0
2018-Jun-19 18:23N 50°43' W 127°29'0 0.0
2018-Jun-19 18:00N 50°43' W 127°29'0 0.0
2018-Jun-19 17:30N 50°43' W 127°29'0 0.0
2018-Jun-19 16:15N 50°43' W 127°29'0 0.0
2018-Jun-19 16:00N 50°43' W 127°29'0 0.0
2018-Jun-19 15:29N 50°43' W 127°29'0 0.0
2018-Jun-19 14:42N 50°43' W 127°29'0 0.0
2018-Jun-18 22:23N 50°43' W 127°29'0 0.0
2018-Jun-18 21:59N 50°43' W 127°29'0 0.0
2018-Jun-18 19:51N 50°43' W 127°29'0 0.0
2018-Jun-18 19:28N 50°43' W 127°29'0 0.0
2018-Jun-18 18:57N 50°43' W 127°29'0 0.0
2018-Jun-18 17:59N 50°43' W 127°29'4 8.8
2018-Jun-18 17:30N 50°47' W 127°30'1019.3
2018-Jun-18 17:00N 50°54' W 127°39'4 8.1
2018-Jun-18 16:30N 50°57' W 127°44'1019.6
2018-Jun-18 16:00N 50°50' W 127°33'811.2
2018-Jun-18 15:18N 50°43' W 127°29'0 0.0
2018-Jun-18 14:58N 50°43' W 127°29'0 0.0
2018-Jun-18 14:28N 50°43' W 127°29'0 0.0
2018-Jun-18 14:00N 50°43' W 127°29'5 9.3
2018-Jun-18 13:30N 50°47' W 127°29'1019.7
2018-Jun-18 13:01N 50°54' W 127°40'5 9.1
2018-Jun-18 12:30N 50°58' W 127°45'815.7
2018-Jun-18 12:00N 50°52' W 127°36'816.6
2018-Jun-18 11:30N 50°46' W 127°28'3 5.9
2018-Jun-18 10:59N 50°43' W 127°29'0 0.0
2018-Jun-18 10:30N 50°43' W 127°29'0 0.0
2018-Jun-18 10:00N 50°43' W 127°29'0 0.0
2018-Jun-18 09:30N 50°43' W 127°29'0 0.0
2018-Jun-18 08:58N 50°43' W 127°29'0 0.0
2018-Jun-18 08:30N 50°43' W 127°29'0 0.0
2018-Jun-18 08:00N 50°43' W 127°29'0 0.0
2018-Jun-18 07:30N 50°43' W 127°29'0 0.0
2018-Jun-18 07:00N 50°43' W 127°29'0 0.0
2018-Jun-18 06:30N 50°43' W 127°29'0 0.0
2018-Jun-18 06:00N 50°43' W 127°29'0 0.0
2018-Jun-18 05:30N 50°43' W 127°29'0 0.0
2018-Jun-18 04:52N 50°43' W 127°29'0 0.0
2018-Jun-18 04:29N 50°43' W 127°29'0 0.0
2018-Jun-18 04:00N 50°43' W 127°29'0 0.0
2018-Jun-18 03:27N 50°43' W 127°29'0 0.0
2018-Jun-18 02:59N 50°43' W 127°29'0 0.0
2018-Jun-18 02:30N 50°43' W 127°29'0 0.0
2018-Jun-18 02:00N 50°43' W 127°29'0 0.0
2018-Jun-17 23:46N 50°43' W 127°29'0 0.0
2018-Jun-17 23:16N 50°43' W 127°29'0 0.0
2018-Jun-17 21:54N 50°43' W 127°29'0 0.0
2018-Jun-17 21:30N 50°43' W 127°29'0 0.0
2018-Jun-17 21:00N 50°43' W 127°29'0 0.0
2018-Jun-17 20:30N 50°43' W 127°29'0 0.0
2018-Jun-17 19:55N 50°43' W 127°29'0 0.0
2018-Jun-17 19:29N 50°43' W 127°29'0 0.0
2018-Jun-17 19:00N 50°43' W 127°29'0 0.0
2018-Jun-17 18:30N 50°43' W 127°29'0 0.0
2018-Jun-17 18:00N 50°43' W 127°29'3 5.4
2018-Jun-17 17:31N 50°45' W 127°29'1019.7
2018-Jun-17 17:00N 50°53' W 127°38'713.6
2018-Jun-17 16:30N 50°58' W 127°46'612.2
2018-Jun-17 16:00N 50°54' W 127°39'815.4
2018-Jun-17 15:30N 50°48' W 127°31'510.3
2018-Jun-17 14:59N 50°43' W 127°29'0 0.0
2018-Jun-17 14:30N 50°43' W 127°29'0 0.0
2018-Jun-17 13:58N 50°43' W 127°29'0 0.0
2018-Jun-17 13:30N 50°43' W 127°29'0 0.0
2018-Jun-17 13:00N 50°43' W 127°29'0 0.0
2018-Jun-17 12:29N 50°43' W 127°29'0 0.0
2018-Jun-17 11:57N 50°43' W 127°29'0 0.0
2018-Jun-17 11:30N 50°43' W 127°29'0 0.0
2018-Jun-17 11:00N 50°43' W 127°29'1 1.4
2018-Jun-17 10:30N 50°43' W 127°29'918.6
2018-Jun-17 10:01N 50°51' W 127°36'918.9
2018-Jun-17 09:30N 50°58' W 127°47'611.1
2018-Jun-17 09:00N 50°55' W 127°39'714.1
2018-Jun-17 08:30N 50°49' W 127°34'713.6
2018-Jun-17 08:00N 50°43' W 127°29'0 0.0
2018-Jun-17 05:25N 50°43' W 127°29'0 0.0
2018-Jun-17 05:00N 50°43' W 127°29'0 0.0
2018-Jun-17 04:23N 50°43' W 127°29'0 0.0
2018-Jun-17 04:00N 50°43' W 127°29'0 0.0
2018-Jun-17 03:27N 50°43' W 127°29'0 0.0
2018-Jun-17 02:55N 50°43' W 127°29'0 0.0
2018-Jun-17 02:27N 50°43' W 127°29'0 0.0
2018-Jun-17 01:58N 50°43' W 127°29'14 3.3
2018-Jun-16 21:38N 50°55' W 127°41'321.1
2018-Jun-16 21:30N 50°56' W 127°44'4 7.5
2018-Jun-16 21:00N 50°59' W 127°49'4 8.4
2018-Jun-16 20:30N 50°56' W 127°44'918.6
2018-Jun-16 20:00N 50°49' W 127°35'714.2
2018-Jun-16 19:30N 50°43' W 127°29'0 0.0
2018-Jun-16 19:00N 50°43' W 127°29'0 0.0
2018-Jun-16 18:30N 50°43' W 127°29'0 0.0
2018-Jun-16 18:00N 50°43' W 127°29'1 2.8
2018-Jun-16 17:30N 50°44' W 127°29'1019.4
2018-Jun-16 17:00N 50°52' W 127°36'918.4
2018-Jun-16 16:31N 50°59' W 127°46'3 6.6
2018-Jun-16 16:00N 50°56' W 127°43'714.6
2018-Jun-16 15:30N 50°51' W 127°35'917.0
2018-Jun-16 15:00N 50°44' W 127°29'1 0.1
2018-Jun-16 07:52N 50°43' W 127°29'0 0.0
2018-Jun-16 07:29N 50°43' W 127°29'0 0.0
2018-Jun-16 06:45N 50°43' W 127°29'0 0.0
2018-Jun-16 06:31N 50°43' W 127°29'0 0.0
2018-Jun-16 06:00N 50°43' W 127°29'0 0.0
2018-Jun-16 05:28N 50°43' W 127°29'0 0.0
2018-Jun-16 04:55N 50°43' W 127°29'0 0.0
2018-Jun-16 04:30N 50°43' W 127°29'0 0.0
2018-Jun-16 04:00N 50°43' W 127°29'0 0.0
2018-Jun-16 03:29N 50°43' W 127°29'714.8
2018-Jun-16 03:00N 50°49' W 127°32'1020.1
2018-Jun-16 02:30N 50°56' W 127°44'1 1.4
2018-Jun-16 02:00N 50°56' W 127°43'1019.8
2018-Jun-16 01:30N 50°48' W 127°33'611.8
2018-Jun-16 01:00N 50°43' W 127°29'0 0.0
2018-Jun-16 00:29N 50°43' W 127°29'0 0.0
2018-Jun-16 00:00N 50°43' W 127°29'0 0.0
2018-Jun-15 23:27N 50°43' W 127°29'0 0.0
2018-Jun-15 23:00N 50°43' W 127°29'0 0.0
2018-Jun-15 22:30N 50°43' W 127°29'0 0.0
2018-Jun-15 21:55N 50°43' W 127°29'0 0.0
2018-Jun-15 21:29N 50°43' W 127°29'4 9.1
2018-Jun-15 21:00N 50°47' W 127°30'1121.1
2018-Jun-15 20:30N 50°55' W 127°41'713.8
2018-Jun-15 20:00N 50°60' W 127°49'2 4.9
2018-Jun-15 19:30N 50°58' W 127°46'713.8
2018-Jun-15 19:00N 50°53' W 127°38'918.4
2018-Jun-15 18:30N 50°46' W 127°29'4 7.1
2018-Jun-15 18:00N 50°43' W 127°29'0 0.0
2018-Jun-15 17:30N 50°43' W 127°29'0 0.0
2018-Jun-15 16:57N 50°43' W 127°29'0 0.0
2018-Jun-15 16:30N 50°43' W 127°29'11 4.9
2018-Jun-15 14:19N 50°52' W 127°36'617.9
2018-Jun-15 14:01N 50°48' W 127°31'5 4.3
2018-Jun-15 12:44N 50°43' W 127°29'0 0.0
2018-Jun-15 12:30N 50°43' W 127°29'0 0.0
2018-Jun-15 12:01N 50°43' W 127°29'0 0.0
2018-Jun-15 11:31N 50°43' W 127°29'0 0.0
2018-Jun-15 10:58N 50°43' W 127°29'0 0.0
2018-Jun-15 10:30N 50°43' W 127°29'0 0.0
2018-Jun-15 09:59N 50°43' W 127°29'0 0.0
2018-Jun-15 09:31N 50°43' W 127°29'0 0.0
2018-Jun-15 08:59N 50°43' W 127°29'0 0.0
2018-Jun-15 08:30N 50°43' W 127°29'0 0.0
2018-Jun-15 08:00N 50°43' W 127°29'0 0.0
2018-Jun-15 07:30N 50°43' W 127°29'0 0.0
2018-Jun-15 07:00N 50°43' W 127°29'0 0.0
2018-Jun-15 06:30N 50°43' W 127°29'0 0.0
2018-Jun-15 06:00N 50°43' W 127°29'  
Track history (hours):
 
Tides and Currents Weather Stations Pressure Air Temp Water Temp Dewpoint Dewpoint Depression Visibility Wind Speed Wind Dir Waves Ship Positions

R.d. Riley

Last reported at 2018-Jun-25 05:30 UTC. Time now 2018-Jun-25 05:38 UTC.
Position N 50°43' W 127°29'.

Length 19 m; draft 2.5 m.

Type: Pilot. MMSI: 316007942.

Date/timePositionNaut miles runAvg speedWind from/ knotsBaromVisibWave heightAir tempDewpointWater temp
2018-Jun-25 05:30N 50°43' W 127°29'0 0.0
2018-Jun-25 05:00N 50°43' W 127°29'0 0.0
2018-Jun-25 04:30N 50°43' W 127°29'0 0.0
2018-Jun-25 04:00N 50°43' W 127°29'0 0.0
2018-Jun-25 03:30N 50°43' W 127°29'0 0.0
2018-Jun-25 03:00N 50°43' W 127°29'0 0.0
2018-Jun-25 02:30N 50°43' W 127°29'0 0.0
2018-Jun-25 02:00N 50°43' W 127°29'0 0.0
2018-Jun-25 01:30N 50°43' W 127°29'0 0.0
2018-Jun-25 01:00N 50°43' W 127°29'0 0.0
2018-Jun-25 00:29N 50°43' W 127°29'0 0.0
2018-Jun-25 00:00N 50°43' W 127°29'0 0.0
2018-Jun-24 23:30N 50°43' W 127°29'0 0.0
2018-Jun-24 23:00N 50°43' W 127°29'0 0.0
2018-Jun-24 22:30N 50°43' W 127°29'2 3.2
2018-Jun-24 22:00N 50°44' W 127°29'918.6
2018-Jun-24 21:30N 50°52' W 127°36'1019.9
2018-Jun-24 21:00N 50°58' W 127°49'5 9.7
2018-Jun-24 20:30N 50°55' W 127°43'918.4
2018-Jun-24 20:00N 50°49' W 127°32'713.4
2018-Jun-24 19:30N 50°43' W 127°29'0 0.0
2018-Jun-24 19:00N 50°43' W 127°29'0 0.0
2018-Jun-24 18:30N 50°43' W 127°29'0 0.0
2018-Jun-24 18:00N 50°43' W 127°29'1 2.0
2018-Jun-24 17:30N 50°44' W 127°29'1019.1
2018-Jun-24 17:00N 50°52' W 127°36'916.7
2018-Jun-24 16:29N 50°58' W 127°46'816.5
2018-Jun-24 16:00N 50°52' W 127°37'713.3
2018-Jun-24 15:30N 50°47' W 127°30'5 8.8
2018-Jun-24 14:58N 50°43' W 127°29'0 0.0
2018-Jun-24 14:30N 50°43' W 127°29'0 0.0
2018-Jun-24 14:00N 50°43' W 127°29'0 0.0
2018-Jun-24 13:29N 50°43' W 127°29'0 0.0
2018-Jun-24 13:00N 50°43' W 127°29'0 0.0
2018-Jun-24 12:30N 50°43' W 127°29'0 0.0
2018-Jun-24 12:00N 50°43' W 127°29'0 0.0
2018-Jun-24 11:30N 50°43' W 127°29'0 0.0
2018-Jun-24 11:00N 50°43' W 127°29'0 0.0
2018-Jun-24 10:30N 50°43' W 127°29'0 0.0
2018-Jun-24 09:56N 50°43' W 127°29'0 0.0
2018-Jun-24 09:30N 50°43' W 127°29'0 0.0
2018-Jun-24 09:00N 50°43' W 127°29'0 0.0
2018-Jun-24 08:30N 50°43' W 127°29'0 0.0
2018-Jun-24 08:00N 50°43' W 127°29'0 0.0
2018-Jun-24 07:30N 50°43' W 127°29'0 0.0
2018-Jun-24 06:58N 50°43' W 127°29'0 0.0
2018-Jun-24 06:30N 50°43' W 127°29'0 0.0
2018-Jun-24 05:51N 50°43' W 127°29'0 0.0
2018-Jun-24 05:30N 50°43' W 127°29'0 0.0
2018-Jun-24 05:00N 50°43' W 127°29'0 0.0
2018-Jun-24 04:16N 50°43' W 127°29'0 0.0
2018-Jun-24 03:59N 50°43' W 127°29'0 0.0
2018-Jun-24 03:30N 50°43' W 127°29'0 0.0
2018-Jun-24 03:00N 50°43' W 127°29'0 0.0
2018-Jun-24 02:30N 50°43' W 127°29'0 0.0
2018-Jun-24 01:58N 50°43' W 127°29'0 0.0
2018-Jun-24 01:30N 50°43' W 127°29'0 0.0
2018-Jun-24 01:00N 50°43' W 127°29'0 0.0
2018-Jun-24 00:30N 50°43' W 127°29'0 0.0
2018-Jun-24 00:00N 50°43' W 127°29'3 6.4
2018-Jun-23 23:30N 50°46' W 127°29'919.4
2018-Jun-23 23:00N 50°53' W 127°38'4 8.8
2018-Jun-23 22:30N 50°56' W 127°44'3 6.1
2018-Jun-23 22:00N 50°58' W 127°48'0 0.3
2018-Jun-23 21:30N 50°58' W 127°48'2 4.8
2018-Jun-23 21:00N 50°56' W 127°44'1020.1
2018-Jun-23 20:30N 50°50' W 127°33'714.6
2018-Jun-23 20:00N 50°43' W 127°29'0 0.0
2018-Jun-23 19:30N 50°43' W 127°29'0 0.0
2018-Jun-23 19:00N 50°43' W 127°29'0 0.0
2018-Jun-23 18:30N 50°43' W 127°29'0 0.0
2018-Jun-23 18:00N 50°43' W 127°29'0 0.0
2018-Jun-23 17:28N 50°43' W 127°29'612.2
2018-Jun-23 17:00N 50°48' W 127°31'1020.2
2018-Jun-23 16:30N 50°55' W 127°42'1 2.2
2018-Jun-23 15:59N 50°56' W 127°43'612.5
2018-Jun-23 15:30N 50°52' W 127°36'510.5
2018-Jun-23 15:00N 50°48' W 127°31'611.6
2018-Jun-23 14:30N 50°43' W 127°29'0 0.1
2018-Jun-23 14:00N 50°43' W 127°29'0 0.0
2018-Jun-23 13:30N 50°43' W 127°29'0 0.0
2018-Jun-23 13:00N 50°43' W 127°29'0 0.0
2018-Jun-23 12:30N 50°43' W 127°29'0 0.0
2018-Jun-23 12:00N 50°43' W 127°29'0 0.0
2018-Jun-23 11:30N 50°43' W 127°29'0 0.0
2018-Jun-23 11:00N 50°43' W 127°29'0 0.0
2018-Jun-23 10:30N 50°43' W 127°29'0 0.0
2018-Jun-23 10:00N 50°43' W 127°29'0 0.0
2018-Jun-23 09:30N 50°43' W 127°29'0 0.0
2018-Jun-23 09:00N 50°43' W 127°29'0 0.0
2018-Jun-23 08:30N 50°43' W 127°29'0 0.0
2018-Jun-23 07:59N 50°43' W 127°29'0 0.0
2018-Jun-23 07:30N 50°43' W 127°29'0 0.0
2018-Jun-23 06:58N 50°43' W 127°29'0 0.0
2018-Jun-23 06:30N 50°43' W 127°29'0 0.0
2018-Jun-23 05:57N 50°43' W 127°29'0 0.0
2018-Jun-23 05:30N 50°43' W 127°29'0 0.0
2018-Jun-23 05:00N 50°43' W 127°29'0 0.0
2018-Jun-23 04:30N 50°43' W 127°29'0 0.0
2018-Jun-23 04:00N 50°43' W 127°29'0 0.0
2018-Jun-23 03:30N 50°43' W 127°29'0 0.0
2018-Jun-23 03:00N 50°43' W 127°29'0 0.0
2018-Jun-23 02:30N 50°43' W 127°29'0 0.0
2018-Jun-23 02:00N 50°43' W 127°29'0 0.0
2018-Jun-23 01:30N 50°43' W 127°29'0 0.0
2018-Jun-23 01:00N 50°43' W 127°29'0 0.0
2018-Jun-23 00:30N 50°43' W 127°29'0 0.0
2018-Jun-23 00:00N 50°43' W 127°29'0 0.0
2018-Jun-22 23:30N 50°43' W 127°29'0 0.0
2018-Jun-22 23:00N 50°43' W 127°29'0 0.0
2018-Jun-22 22:30N 50°43' W 127°29'0 0.0
2018-Jun-22 22:00N 50°43' W 127°29'0 0.0
2018-Jun-22 21:30N 50°43' W 127°29'0 0.0
2018-Jun-22 21:00N 50°43' W 127°29'0 0.0
2018-Jun-22 20:30N 50°43' W 127°29'2 4.6
2018-Jun-22 20:00N 50°45' W 127°29'919.1
2018-Jun-22 19:31N 50°52' W 127°37'918.5
2018-Jun-22 19:00N 50°59' W 127°48'3 6.0
2018-Jun-22 18:31N 50°57' W 127°45'1019.7
2018-Jun-22 18:01N 50°50' W 127°33'815.8
2018-Jun-22 17:30N 50°43' W 127°29'0 0.0
2018-Jun-22 17:00N 50°43' W 127°29'0 0.0
2018-Jun-22 16:30N 50°43' W 127°29'0 0.0
2018-Jun-22 16:00N 50°43' W 127°29'916.2
2018-Jun-22 15:27N 50°51' W 127°34'920.3
2018-Jun-22 15:00N 50°58' W 127°44'4 8.8
2018-Jun-22 14:30N 50°54' W 127°39'714.0
2018-Jun-22 14:00N 50°49' W 127°32'713.2
2018-Jun-22 13:30N 50°43' W 127°29'0 0.2
2018-Jun-22 13:00N 50°43' W 127°29'0 0.0
2018-Jun-22 12:30N 50°43' W 127°29'0 0.0
2018-Jun-22 12:00N 50°43' W 127°29'0 0.0
2018-Jun-22 11:30N 50°43' W 127°29'0 0.0
2018-Jun-22 11:00N 50°43' W 127°29'0 0.0
2018-Jun-22 10:30N 50°43' W 127°29'0 0.0
2018-Jun-22 10:00N 50°43' W 127°29'0 0.0
2018-Jun-22 09:29N 50°43' W 127°29'0 0.0
2018-Jun-22 08:59N 50°43' W 127°29'713.9
2018-Jun-22 08:30N 50°48' W 127°34'918.2
2018-Jun-22 08:00N 50°56' W 127°42'1 1.9
2018-Jun-22 07:30N 50°56' W 127°41'714.6
2018-Jun-22 07:00N 50°49' W 127°35'815.0
2018-Jun-22 06:30N 50°43' W 127°29'0 0.0
2018-Jun-22 05:59N 50°43' W 127°29'0 0.0
2018-Jun-22 05:30N 50°43' W 127°29'0 0.0
2018-Jun-22 05:00N 50°43' W 127°29'0 0.0
2018-Jun-22 04:30N 50°43' W 127°29'0 0.0
2018-Jun-22 04:00N 50°43' W 127°29'0 0.0
2018-Jun-22 03:30N 50°43' W 127°29'0 0.0
2018-Jun-22 03:00N 50°43' W 127°29'0 0.0
2018-Jun-22 02:30N 50°43' W 127°29'0 0.0
2018-Jun-22 02:00N 50°43' W 127°29'0 0.0
2018-Jun-22 01:29N 50°43' W 127°29'0 0.0
2018-Jun-22 00:59N 50°43' W 127°29'0 0.0
2018-Jun-22 00:30N 50°43' W 127°29'0 0.0
2018-Jun-22 00:00N 50°43' W 127°29'0 0.0
2018-Jun-21 23:30N 50°43' W 127°29'0 0.0
2018-Jun-21 22:57N 50°43' W 127°29'0 0.0
2018-Jun-21 22:30N 50°43' W 127°29'0 0.0
2018-Jun-21 21:59N 50°43' W 127°29'0 0.0
2018-Jun-21 21:30N 50°43' W 127°29'0 0.0
2018-Jun-21 20:57N 50°43' W 127°29'0 0.0
2018-Jun-21 20:30N 50°43' W 127°29'0 0.0
2018-Jun-21 20:00N 50°43' W 127°29'0 0.0
2018-Jun-21 19:30N 50°43' W 127°29'0 0.0
2018-Jun-21 18:59N 50°43' W 127°29'0 0.0
2018-Jun-21 18:30N 50°43' W 127°29'0 0.0
2018-Jun-21 18:00N 50°43' W 127°29'0 0.0
2018-Jun-21 17:30N 50°43' W 127°29'0 0.0
2018-Jun-21 16:58N 50°43' W 127°29'0 0.0
2018-Jun-21 16:30N 50°43' W 127°29'8 5.4
2018-Jun-21 15:00N 50°50' W 127°33'1020.0
2018-Jun-21 14:30N 50°58' W 127°45'713.3
2018-Jun-21 13:59N 50°53' W 127°37'612.2
2018-Jun-21 13:31N 50°48' W 127°31'611.4
2018-Jun-21 13:00N 50°43' W 127°29'0 0.0
2018-Jun-21 12:30N 50°43' W 127°29'0 0.0
2018-Jun-21 12:01N 50°43' W 127°29'0 0.0
2018-Jun-21 11:31N 50°43' W 127°29'0 0.0
2018-Jun-21 11:00N 50°43' W 127°29'0 0.0
2018-Jun-21 10:31N 50°43' W 127°29'0 0.0
2018-Jun-21 09:59N 50°43' W 127°29'0 0.0
2018-Jun-21 09:31N 50°43' W 127°29'0 0.0
2018-Jun-21 09:01N 50°43' W 127°29'0 0.0
2018-Jun-21 08:30N 50°43' W 127°29'0 0.0
2018-Jun-21 08:01N 50°43' W 127°29'0 0.0
2018-Jun-21 07:31N 50°43' W 127°29'0 0.0
2018-Jun-21 07:00N 50°43' W 127°29'0 0.0
2018-Jun-21 06:30N 50°43' W 127°29'0 0.0
2018-Jun-21 06:01N 50°43' W 127°29'0 0.0
2018-Jun-21 05:31N 50°43' W 127°29'0 0.0
2018-Jun-21 05:00N 50°43' W 127°29'0 0.0
2018-Jun-21 04:30N 50°43' W 127°29'0 0.0
2018-Jun-21 03:57N 50°43' W 127°29'0 0.0
2018-Jun-21 03:30N 50°43' W 127°29'0 0.0
2018-Jun-21 03:00N 50°43' W 127°29'0 0.0
2018-Jun-21 02:30N 50°43' W 127°29'0 0.0
2018-Jun-21 02:01N 50°43' W 127°29'0 0.0
2018-Jun-21 01:30N 50°43' W 127°29'0 0.0
2018-Jun-21 01:00N 50°43' W 127°29'3 6.1
2018-Jun-21 00:30N 50°46' W 127°29'1020.4
2018-Jun-21 00:00N 50°54' W 127°39'714.0
2018-Jun-20 23:30N 50°58' W 127°47'1019.1
2018-Jun-20 23:00N 50°52' W 127°36'917.9
2018-Jun-20 22:30N 50°44' W 127°29'1 2.9
2018-Jun-20 22:00N 50°43' W 127°29'0 0.0
2018-Jun-20 21:30N 50°43' W 127°29'0 0.0
2018-Jun-20 21:00N 50°43' W 127°29'1 2.0
2018-Jun-20 20:30N 50°44' W 127°29'1019.4
2018-Jun-20 20:00N 50°52' W 127°36'816.1
2018-Jun-20 19:30N 50°58' W 127°45'918.8
2018-Jun-20 19:01N 50°51' W 127°35'814.7
2018-Jun-20 18:28N 50°44' W 127°29'1 3.2
2018-Jun-20 18:00N 50°43' W 127°29'0 0.0
2018-Jun-20 17:30N 50°43' W 127°29'0 0.0
2018-Jun-20 17:00N 50°43' W 127°29'0 0.0
2018-Jun-20 16:29N 50°43' W 127°29'0 0.0
2018-Jun-20 15:59N 50°43' W 127°29'0 0.0
2018-Jun-20 15:30N 50°43' W 127°29'0 0.0
2018-Jun-20 15:00N 50°43' W 127°29'0 0.0
2018-Jun-20 14:30N 50°43' W 127°29'0 0.0
2018-Jun-20 14:00N 50°43' W 127°29'0 0.0
2018-Jun-20 13:30N 50°43' W 127°29'0 0.0
2018-Jun-20 13:00N 50°43' W 127°29'0 0.0
2018-Jun-20 12:30N 50°43' W 127°29'0 0.0
2018-Jun-20 12:00N 50°43' W 127°29'0 0.0
2018-Jun-20 11:30N 50°43' W 127°29'0 0.0
2018-Jun-20 10:59N 50°43' W 127°29'0 0.0
2018-Jun-20 10:30N 50°43' W 127°29'0 0.0
2018-Jun-20 10:00N 50°43' W 127°29'0 0.0
2018-Jun-20 09:30N 50°43' W 127°29'0 0.0
2018-Jun-20 09:00N 50°43' W 127°29'0 0.0
2018-Jun-20 08:30N 50°43' W 127°29'0 0.0
2018-Jun-20 06:33N 50°43' W 127°29'0 0.0
2018-Jun-20 06:18N 50°43' W 127°29'0 0.0
2018-Jun-20 06:00N 50°43' W 127°29'0 0.0
2018-Jun-20 05:28N 50°43' W 127°29'0 0.0
2018-Jun-20 04:58N 50°43' W 127°29'0 0.0
2018-Jun-20 04:29N 50°43' W 127°29'0 0.0
2018-Jun-20 03:59N 50°43' W 127°29'0 0.0
2018-Jun-20 03:29N 50°43' W 127°29'0 0.0
2018-Jun-20 03:00N 50°43' W 127°29'0 0.0
2018-Jun-20 02:28N 50°43' W 127°29'0 0.0
2018-Jun-20 02:00N 50°43' W 127°29'0 0.0
2018-Jun-20 01:21N 50°43' W 127°29'0 0.0
2018-Jun-20 00:54N 50°43' W 127°29'0 0.0
2018-Jun-20 00:27N 50°43' W 127°29'0 0.0
2018-Jun-19 23:58N 50°43' W 127°29'0 0.0
2018-Jun-19 23:30N 50°43' W 127°29'2 4.7
2018-Jun-19 23:00N 50°45' W 127°29'1019.9
2018-Jun-19 22:31N 50°53' W 127°38'918.0
2018-Jun-19 22:00N 50°59' W 127°48'917.7
2018-Jun-19 21:30N 50°53' W 127°38'1019.8
2018-Jun-19 21:00N 50°45' W 127°29'2 2.4
2018-Jun-19 20:05N 50°43' W 127°29'0 0.0
2018-Jun-19 19:49N 50°43' W 127°29'0 0.0
2018-Jun-19 19:21N 50°43' W 127°29'0 0.0
2018-Jun-19 18:52N 50°43' W 127°29'0 0.0
2018-Jun-19 18:23N 50°43' W 127°29'0 0.0
2018-Jun-19 18:00N 50°43' W 127°29'0 0.0
2018-Jun-19 17:30N 50°43' W 127°29'0 0.0
2018-Jun-19 16:15N 50°43' W 127°29'0 0.0
2018-Jun-19 16:00N 50°43' W 127°29'0 0.0
2018-Jun-19 15:29N 50°43' W 127°29'0 0.0
2018-Jun-19 14:42N 50°43' W 127°29'0 0.0
2018-Jun-18 22:23N 50°43' W 127°29'0 0.0
2018-Jun-18 21:59N 50°43' W 127°29'0 0.0
2018-Jun-18 19:51N 50°43' W 127°29'0 0.0
2018-Jun-18 19:28N 50°43' W 127°29'0 0.0
2018-Jun-18 18:57N 50°43' W 127°29'0 0.0
2018-Jun-18 17:59N 50°43' W 127°29'4 8.8
2018-Jun-18 17:30N 50°47' W 127°30'1019.3
2018-Jun-18 17:00N 50°54' W 127°39'4 8.1
2018-Jun-18 16:30N 50°57' W 127°44'1019.6
2018-Jun-18 16:00N 50°50' W 127°33'811.2
2018-Jun-18 15:18N 50°43' W 127°29'0 0.0
2018-Jun-18 14:58N 50°43' W 127°29'0 0.0
2018-Jun-18 14:28N 50°43' W 127°29'0 0.0
2018-Jun-18 14:00N 50°43' W 127°29'5 9.3
2018-Jun-18 13:30N 50°47' W 127°29'1019.7
2018-Jun-18 13:01N 50°54' W 127°40'5 9.1
2018-Jun-18 12:30N 50°58' W 127°45'815.7
2018-Jun-18 12:00N 50°52' W 127°36'816.6
2018-Jun-18 11:30N 50°46' W 127°28'3 5.9
2018-Jun-18 10:59N 50°43' W 127°29'0 0.0
2018-Jun-18 10:30N 50°43' W 127°29'0 0.0
2018-Jun-18 10:00N 50°43' W 127°29'0 0.0
2018-Jun-18 09:30N 50°43' W 127°29'0 0.0
2018-Jun-18 08:58N 50°43' W 127°29'0 0.0
2018-Jun-18 08:30N 50°43' W 127°29'0 0.0
2018-Jun-18 08:00N 50°43' W 127°29'0 0.0
2018-Jun-18 07:30N 50°43' W 127°29'0 0.0
2018-Jun-18 07:00N 50°43' W 127°29'0 0.0
2018-Jun-18 06:30N 50°43' W 127°29'0 0.0
2018-Jun-18 06:00N 50°43' W 127°29'0 0.0
2018-Jun-18 05:30N 50°43' W 127°29'0 0.0
2018-Jun-18 04:52N 50°43' W 127°29'0 0.0
2018-Jun-18 04:29N 50°43' W 127°29'0 0.0
2018-Jun-18 04:00N 50°43' W 127°29'0 0.0
2018-Jun-18 03:27N 50°43' W 127°29'0 0.0
2018-Jun-18 02:59N 50°43' W 127°29'0 0.0
2018-Jun-18 02:30N 50°43' W 127°29'0 0.0
2018-Jun-18 02:00N 50°43' W 127°29'0 0.0
2018-Jun-17 23:46N 50°43' W 127°29'0 0.0
2018-Jun-17 23:16N 50°43' W 127°29'0 0.0
2018-Jun-17 21:54N 50°43' W 127°29'0 0.0
2018-Jun-17 21:30N 50°43' W 127°29'0 0.0
2018-Jun-17 21:00N 50°43' W 127°29'0 0.0
2018-Jun-17 20:30N 50°43' W 127°29'0 0.0
2018-Jun-17 19:55N 50°43' W 127°29'0 0.0
2018-Jun-17 19:29N 50°43' W 127°29'0 0.0
2018-Jun-17 19:00N 50°43' W 127°29'0 0.0
2018-Jun-17 18:30N 50°43' W 127°29'0 0.0
2018-Jun-17 18:00N 50°43' W 127°29'3 5.4
2018-Jun-17 17:31N 50°45' W 127°29'1019.7
2018-Jun-17 17:00N 50°53' W 127°38'713.6
2018-Jun-17 16:30N 50°58' W 127°46'612.2
2018-Jun-17 16:00N 50°54' W 127°39'815.4
2018-Jun-17 15:30N 50°48' W 127°31'510.3
2018-Jun-17 14:59N 50°43' W 127°29'0 0.0
2018-Jun-17 14:30N 50°43' W 127°29'0 0.0
2018-Jun-17 13:58N 50°43' W 127°29'0 0.0
2018-Jun-17 13:30N 50°43' W 127°29'0 0.0
2018-Jun-17 13:00N 50°43' W 127°29'0 0.0
2018-Jun-17 12:29N 50°43' W 127°29'0 0.0
2018-Jun-17 11:57N 50°43' W 127°29'0 0.0
2018-Jun-17 11:30N 50°43' W 127°29'0 0.0
2018-Jun-17 11:00N 50°43' W 127°29'1 1.4
2018-Jun-17 10:30N 50°43' W 127°29'918.6
2018-Jun-17 10:01N 50°51' W 127°36'918.9
2018-Jun-17 09:30N 50°58' W 127°47'611.1
2018-Jun-17 09:00N 50°55' W 127°39'714.1
2018-Jun-17 08:30N 50°49' W 127°34'713.6
2018-Jun-17 08:00N 50°43' W 127°29'0 0.0
2018-Jun-17 05:25N 50°43' W 127°29'0 0.0
2018-Jun-17 05:00N 50°43' W 127°29'0 0.0
2018-Jun-17 04:23N 50°43' W 127°29'0 0.0
2018-Jun-17 04:00N 50°43' W 127°29'0 0.0
2018-Jun-17 03:27N 50°43' W 127°29'0 0.0
2018-Jun-17 02:55N 50°43' W 127°29'0 0.0
2018-Jun-17 02:27N 50°43' W 127°29'0 0.0
2018-Jun-17 01:58N 50°43' W 127°29'14 3.3
2018-Jun-16 21:38N 50°55' W 127°41'321.1
2018-Jun-16 21:30N 50°56' W 127°44'4 7.5
2018-Jun-16 21:00N 50°59' W 127°49'4 8.4
2018-Jun-16 20:30N 50°56' W 127°44'918.6
2018-Jun-16 20:00N 50°49' W 127°35'714.2
2018-Jun-16 19:30N 50°43' W 127°29'0 0.0
2018-Jun-16 19:00N 50°43' W 127°29'0 0.0
2018-Jun-16 18:30N 50°43' W 127°29'0 0.0
2018-Jun-16 18:00N 50°43' W 127°29'1 2.8
2018-Jun-16 17:30N 50°44' W 127°29'1019.4
2018-Jun-16 17:00N 50°52' W 127°36'918.4
2018-Jun-16 16:31N 50°59' W 127°46'3 6.6
2018-Jun-16 16:00N 50°56' W 127°43'714.6
2018-Jun-16 15:30N 50°51' W 127°35'917.0
2018-Jun-16 15:00N 50°44' W 127°29'1 0.1
2018-Jun-16 07:52N 50°43' W 127°29'0 0.0
2018-Jun-16 07:29N 50°43' W 127°29'0 0.0
2018-Jun-16 06:45N 50°43' W 127°29'0 0.0
2018-Jun-16 06:31N 50°43' W 127°29'0 0.0
2018-Jun-16 06:00N 50°43' W 127°29'0 0.0
2018-Jun-16 05:28N 50°43' W 127°29'0 0.0
2018-Jun-16 04:55N 50°43' W 127°29'0 0.0
2018-Jun-16 04:30N 50°43' W 127°29'0 0.0
2018-Jun-16 04:00N 50°43' W 127°29'0 0.0
2018-Jun-16 03:29N 50°43' W 127°29'714.8
2018-Jun-16 03:00N 50°49' W 127°32'1020.1
2018-Jun-16 02:30N 50°56' W 127°44'1 1.4
2018-Jun-16 02:00N 50°56' W 127°43'1019.8
2018-Jun-16 01:30N 50°48' W 127°33'611.8
2018-Jun-16 01:00N 50°43' W 127°29'0 0.0
2018-Jun-16 00:29N 50°43' W 127°29'0 0.0
2018-Jun-16 00:00N 50°43' W 127°29'0 0.0
2018-Jun-15 23:27N 50°43' W 127°29'0 0.0
2018-Jun-15 23:00N 50°43' W 127°29'0 0.0
2018-Jun-15 22:30N 50°43' W 127°29'0 0.0
2018-Jun-15 21:55N 50°43' W 127°29'0 0.0
2018-Jun-15 21:29N 50°43' W 127°29'4 9.1
2018-Jun-15 21:00N 50°47' W 127°30'1121.1
2018-Jun-15 20:30N 50°55' W 127°41'713.8
2018-Jun-15 20:00N 50°60' W 127°49'2 4.9
2018-Jun-15 19:30N 50°58' W 127°46'713.8
2018-Jun-15 19:00N 50°53' W 127°38'918.4
2018-Jun-15 18:30N 50°46' W 127°29'4 7.1
2018-Jun-15 18:00N 50°43' W 127°29'0 0.0
2018-Jun-15 17:30N 50°43' W 127°29'0 0.0
2018-Jun-15 16:57N 50°43' W 127°29'0 0.0
2018-Jun-15 16:30N 50°43' W 127°29'11 4.9
2018-Jun-15 14:19N 50°52' W 127°36'617.9
2018-Jun-15 14:01N 50°48' W 127°31'5 4.3
2018-Jun-15 12:44N 50°43' W 127°29'0 0.0
2018-Jun-15 12:30N 50°43' W 127°29'0 0.0
2018-Jun-15 12:01N 50°43' W 127°29'0 0.0
2018-Jun-15 11:31N 50°43' W 127°29'0 0.0
2018-Jun-15 10:58N 50°43' W 127°29'0 0.0
2018-Jun-15 10:30N 50°43' W 127°29'0 0.0
2018-Jun-15 09:59N 50°43' W 127°29'0 0.0
2018-Jun-15 09:31N 50°43' W 127°29'0 0.0
2018-Jun-15 08:59N 50°43' W 127°29'0 0.0
2018-Jun-15 08:30N 50°43' W 127°29'0 0.0
2018-Jun-15 08:00N 50°43' W 127°29'0 0.0
2018-Jun-15 07:30N 50°43' W 127°29'0 0.0
2018-Jun-15 07:00N 50°43' W 127°29'0 0.0
2018-Jun-15 06:30N 50°43' W 127°29'0 0.0
2018-Jun-15 06:00N 50°43' W 127°29'  

Dump ship's entire track history